Time;durP1;ratioP1;P1;durP2;ratioP2;P2;SDS_P1;SDS_P2;PMS_P1;PMS_P2;Temp;Humidity;BMP_temperature;BMP_pressure;BME280_temperature;BME280_humidity;BME280_pressure;Samples;Min_cycle;Max_cycle;Signal;HPM_P1;HPM_P2
2022/11/02 00:00:28;;;;;;;13.60;2.58;;;11.90;99.90;;;;;;5032028;28;20045;-55
2022/11/02 00:02:54;;;;;;;9.52;2.67;;;12.10;99.90;;;;;;5031355;28;20041;-56
2022/11/02 00:05:23;;;;;;;8.55;2.13;;;12.30;99.90;;;;;;5031646;28;20091;-55
2022/11/02 00:07:50;;;;;;;11.35;2.45;;;12.40;99.90;;;;;;5030710;28;20402;-57
2022/11/02 00:10:17;;;;;;;10.48;2.67;;;12.20;99.90;;;;;;5031561;28;20073;-57
2022/11/02 00:12:43;;;;;;;9.52;3.05;;;12.20;99.90;;;;;;5012157;28;20492;-55
2022/11/02 00:15:09;;;;;;;9.18;2.20;;;12.00;99.90;;;;;;5031408;28;20072;-53
2022/11/02 00:17:36;;;;;;;9.63;3.75;;;11.30;99.90;;;;;;5030412;28;20045;-56
2022/11/02 00:20:05;;;;;;;9.30;3.08;;;11.90;99.90;;;;;;5031299;28;20042;-57
2022/11/02 00:22:32;;;;;;;10.48;3.33;;;12.20;99.90;;;;;;5031347;28;20094;-56
2022/11/02 00:24:59;;;;;;;12.68;2.60;;;;;;;;;;5013581;28;20527;-57
2022/11/02 00:27:25;;;;;;;10.82;3.03;;;11.40;99.90;;;;;;5030995;28;20041;-56
2022/11/02 00:29:51;;;;;;;11.98;3.15;;;;;;;;;;5030974;28;20044;-53
2022/11/02 00:32:17;;;;;;;11.40;3.75;;;11.90;99.90;;;;;;5038174;28;20036;-54
2022/11/02 00:34:42;;;;;;;11.35;2.88;;;11.40;99.90;;;;;;5036626;28;20052;-52
2022/11/02 00:37:08;;;;;;;9.30;2.83;;;11.00;99.90;;;;;;5030220;28;20041;-54
2022/11/02 00:39:34;;;;;;;13.43;3.30;;;11.20;99.90;;;;;;5030843;28;20037;-54
2022/11/02 00:41:59;;;;;;;9.85;3.00;;;12.10;99.90;;;;;;5031433;28;20029;-56
2022/11/02 00:44:25;;;;;;;9.75;3.10;;;;;;;;;;5030916;28;20388;-53
2022/11/02 00:46:51;;;;;;;10.75;3.67;;;12.00;99.90;;;;;;5030650;28;20049;-52
2022/11/02 00:49:16;;;;;;;8.27;2.70;;;10.90;99.90;;;;;;5030785;28;20116;-56
2022/11/02 00:51:43;;;;;;;17.27;3.60;;;11.60;99.90;;;;;;5039391;28;20055;-55
2022/11/02 00:54:08;;;;;;;9.75;2.53;;;11.20;99.90;;;;;;5030330;28;20453;-56
2022/11/02 00:56:34;;;;;;;10.63;2.72;;;11.70;99.90;;;;;;5030311;28;20041;-57
2022/11/02 00:59:00;;;;;;;8.98;2.80;;;11.10;99.90;;;;;;5030378;28;20029;-56
2022/11/02 01:01:25;;;;;;;9.07;2.65;;;11.20;99.90;;;;;;5030551;28;20517;-57
2022/11/02 01:03:51;;;;;;;10.00;2.60;;;;;;;;;;5030530;28;20037;-55
2022/11/02 01:06:17;;;;;;;9.43;2.03;;;11.00;99.90;;;;;;5026149;28;20065;-55
2022/11/02 01:08:42;;;;;;;6.55;2.33;;;11.00;99.90;;;;;;5031750;28;20041;-56
2022/11/02 01:11:13;;;;;;;7.10;2.30;;;11.20;99.90;;;;;;5030321;28;20034;-54
2022/11/02 01:13:41;;;;;;;10.32;2.28;;;11.10;99.90;;;;;;5030271;28;20037;-54
2022/11/02 01:16:07;;;;;;;9.57;2.45;;;10.90;99.90;;;;;;5030339;28;20487;-56
2022/11/02 01:18:34;;;;;;;7.20;2.15;;;11.30;99.90;;;;;;5029468;28;20068;-54
2022/11/02 01:20:59;;;;;;;5.88;2.08;;;11.20;99.90;;;;;;5034199;28;20059;-56
2022/11/02 01:23:25;;;;;;;7.57;2.03;;;11.10;99.90;;;;;;5041997;28;20045;-55
2022/11/02 01:25:51;;;;;;;6.00;1.80;;;11.10;99.90;;;;;;5030447;28;20033;-56
2022/11/02 01:28:17;;;;;;;8.43;2.15;;;11.30;99.90;;;;;;5029663;28;20030;-56
2022/11/02 01:30:45;;;;;;;11.65;1.70;;;11.10;99.90;;;;;;5029573;28;20103;-57
2022/11/02 01:33:11;;;;;;;9.95;2.15;;;11.30;99.90;;;;;;5029881;28;20518;-55
2022/11/02 01:35:38;;;;;;;7.25;2.05;;;10.80;99.90;;;;;;5040294;28;20045;-57
2022/11/02 01:38:05;;;;;;;5.75;1.98;;;11.00;99.90;;;;;;5029909;28;20041;-57
2022/11/02 01:40:38;;;;;;;8.82;2.03;;;11.70;99.90;;;;;;5012017;28;20033;-57
2022/11/02 01:43:25;;;;;;;8.88;1.92;;;11.10;99.90;;;;;;5012307;28;20048;-56
2022/11/02 01:45:57;;;;;;;6.40;1.50;;;11.00;99.90;;;;;;5029408;28;20061;-55
2022/11/02 01:48:30;;;;;;;5.85;2.03;;;11.00;99.90;;;;;;5029806;28;20041;-54
2022/11/02 01:50:59;;;;;;;10.88;1.88;;;11.00;99.90;;;;;;5029973;28;20484;-56
2022/11/02 01:53:24;;;;;;;9.52;1.77;;;10.60;99.90;;;;;;5029864;28;20041;-54
2022/11/02 01:55:50;;;;;;;12.40;2.13;;;10.90;99.90;;;;;;5029616;28;20033;-54
2022/11/02 01:58:16;;;;;;;9.27;2.20;;;10.90;99.90;;;;;;5029244;28;20042;-55
2022/11/02 02:00:42;;;;;;;7.32;2.20;;;10.80;99.90;;;;;;5031750;28;20482;-56
2022/11/02 02:03:16;;;;;;;7.65;1.55;;;10.70;99.90;;;;;;5040769;28;20121;-57
2022/11/02 02:05:51;;;;;;;7.18;1.63;;;10.70;99.90;;;;;;5011938;28;20049;-56
2022/11/02 02:08:19;;;;;;;5.30;1.73;;;10.90;99.90;;;;;;5011814;28;20033;-55
2022/11/02 02:10:45;;;;;;;7.22;1.77;;;10.40;99.90;;;;;;5029381;28;20041;-56
2022/11/02 02:13:12;;;;;;;5.00;1.33;;;10.60;99.90;;;;;;5029708;28;20033;-56
2022/11/02 02:15:45;;;;;;;6.72;1.73;;;10.80;99.90;;;;;;5029819;28;20049;-55
2022/11/02 02:18:27;;;;;;;6.68;1.73;;;11.00;99.90;;;;;;5005522;28;20038;-55
2022/11/02 02:21:01;;;;;;;10.23;1.73;;;10.70;99.90;;;;;;5029015;28;20030;-56
2022/11/02 02:23:46;;;;;;;7.22;1.75;;;10.70;99.90;;;;;;5029184;28;20049;-55
2022/11/02 02:26:40;;;;;;;9.00;2.20;;;10.90;99.90;;;;;;5028927;28;20041;-57
2022/11/02 02:29:30;;;;;;;5.43;1.80;;;10.80;99.90;;;;;;5029288;28;20041;-54
2022/11/02 02:32:10;;;;;;;8.27;2.55;;;9.80;99.90;;;;;;5011948;28;20156;-55
2022/11/02 02:34:50;;;;;;;6.07;1.90;;;10.80;99.90;;;;;;5029593;28;20462;-56
2022/11/02 02:37:20;;;;;;;5.95;2.05;;;9.80;99.90;;;;;;5029179;28;20052;-56
2022/11/02 02:40:09;;;;;;;7.78;2.00;;;;;;;;;;5029154;28;20045;-53
2022/11/02 02:42:49;;;;;;;8.40;2.10;;;10.60;99.90;;;;;;5012268;28;20385;-54
2022/11/02 02:45:29;;;;;;;7.70;2.00;;;10.60;99.90;;;;;;5012216;28;20034;-54
2022/11/02 02:48:17;;;;;;;7.78;2.22;;;10.80;99.90;;;;;;5029233;28;20160;-56
2022/11/02 02:50:48;;;;;;;4.43;1.23;;;10.80;99.90;;;;;;5024775;28;20057;-54
2022/11/02 02:53:18;;;;;;;7.35;2.13;;;11.40;99.90;;;;;;5034758;28;20043;-55
2022/11/02 02:55:46;;;;;;;4.78;1.30;;;11.00;99.90;;;;;;4996819;22;20141;-58
2022/11/02 02:58:24;;;;;;;7.65;1.85;;;10.80;99.90;;;;;;5014617;28;20092;-58
2022/11/02 03:00:54;;;;;;;6.45;1.50;;;11.00;99.90;;;;;;5024963;28;20618;-60
2022/11/02 03:03:24;;;;;;;8.40;2.22;;;11.10;99.90;;;;;;5017865;28;20434;-59
2022/11/02 03:06:08;;;;;;;5.93;1.40;;;11.10;99.90;;;;;;5013117;28;20033;-60
2022/11/02 03:08:37;;;;;;;5.55;1.25;;;10.70;99.90;;;;;;5012620;28;20046;-60
2022/11/02 03:11:13;;;;;;;6.00;1.70;;;10.70;99.90;;;;;;5012195;28;20034;-59
2022/11/02 03:13:45;;;;;;;5.88;1.13;;;10.60;99.90;;;;;;5029914;28;20041;-60
2022/11/02 03:16:36;;;;;;;8.45;1.70;;;10.80;99.90;;;;;;5030359;28;20120;-59
2022/11/02 03:19:11;;;;;;;6.72;1.30;;;;;;;;;;5025688;28;20048;-59
2022/11/02 03:21:41;;;;;;;7.47;1.40;;;;;;;;;;5021090;28;20041;-59
2022/11/02 03:24:33;;;;;;;7.93;1.83;;;10.50;99.90;;;;;;5019423;28;20121;-60
2022/11/02 03:27:20;;;;;;;5.85;2.03;;;10.80;99.90;;;;;;5017169;28;20079;-60
2022/11/02 03:29:57;;;;;;;8.07;1.67;;;10.10;99.90;;;;;;5026919;28;20087;-58
2022/11/02 03:32:54;;;;;;;6.43;1.45;;;10.70;99.90;;;;;;5016504;28;20084;-60
2022/11/02 03:35:39;;;;;;;8.20;1.65;;;;;;;;;;5011593;28;20529;-59
2022/11/02 03:38:11;;;;;;;10.93;1.63;;;;;;;;;;5019531;28;20509;-59
2022/11/02 03:40:44;;;;;;;10.60;1.90;;;10.90;99.90;;;;;;5023211;28;20514;-59
2022/11/02 03:43:12;;;;;;;9.65;1.83;;;10.70;99.90;;;;;;5028473;28;20109;-60
2022/11/02 03:45:42;;;;;;;9.07;2.50;;;11.10;99.90;;;;;;5004549;28;20344;-59
2022/11/02 03:48:11;;;;;;;6.93;1.80;;;10.90;99.90;;;;;;5018788;28;20048;-58
2022/11/02 03:50:43;;;;;;;10.35;1.88;;;10.70;99.90;;;;;;5022431;28;20466;-57
2022/11/02 03:53:14;;;;;;;12.50;3.05;;;10.70;99.90;;;;;;5012670;28;20376;-60
2022/11/02 03:55:44;;;;;;;8.63;1.73;;;11.20;99.90;;;;;;5018539;28;20128;-58
2022/11/02 03:58:11;;;;;;;10.38;2.40;;;10.90;99.90;;;;;;5002199;28;20034;-59
2022/11/02 04:00:42;;;;;;;8.90;1.95;;;10.70;99.90;;;;;;5021481;28;20514;-57
2022/11/02 04:03:10;;;;;;;9.50;2.13;;;10.00;99.90;;;;;;5024446;28;20120;-58
2022/11/02 04:05:36;;;;;;;18.35;2.95;;;11.00;99.90;;;;;;5016099;28;20049;-57
2022/11/02 04:08:21;;;;;;;12.75;2.20;;;10.80;99.90;;;;;;5016349;28;20037;-59
2022/11/02 04:16:19;;;;;;;11.05;2.33;;;10.60;99.90;;;;;;5031912;28;20042;-59
2022/11/02 04:21:29;;;;;;;8.40;1.65;;;10.50;99.90;;;;;;5031537;28;20081;-59
2022/11/02 04:26:40;;;;;;;10.02;2.10;;;10.50;99.90;;;;;;5016419;28;20411;-59
2022/11/02 04:29:05;;;;;;;9.90;3.13;;;11.00;99.90;;;;;;5024693;28;20038;-59
2022/11/02 04:31:31;;;;;;;10.43;2.50;;;10.60;99.90;;;;;;5019342;28;20092;-57
2022/11/02 04:33:58;;;;;;;10.88;2.58;;;10.70;99.90;;;;;;5000271;28;20569;-59
2022/11/02 04:36:25;;;;;;;14.10;2.60;;;10.80;99.90;;;;;;5027365;28;20059;-58
2022/11/02 04:38:50;;;;;;;12.55;3.15;;;10.00;99.90;;;;;;5027847;28;20458;-58
2022/11/02 04:44:04;;;;;;;13.65;2.55;;;10.40;99.90;;;;;;5022457;28;20042;-60
2022/11/02 04:46:32;;;;;;;11.95;2.72;;;;;;;;;;5025755;28;20038;-63
2022/11/02 04:48:58;;;;;;;14.93;2.40;;;10.30;99.90;;;;;;5018741;28;20037;-64
2022/11/02 04:51:25;;;;;;;10.15;2.85;;;10.30;99.90;;;;;;5017650;28;20033;-64
2022/11/02 04:53:53;;;;;;;11.63;3.42;;;10.20;99.90;;;;;;5014019;28;20038;-63
2022/11/02 04:56:19;;;;;;;9.23;2.20;;;10.30;99.90;;;;;;5016656;28;20041;-62
2022/11/02 04:58:53;;;;;;;9.70;3.47;;;9.70;99.90;;;;;;5029060;28;20036;-62
2022/11/02 05:01:20;;;;;;;12.18;3.33;;;10.20;99.90;;;;;;5001661;28;20472;-62
2022/11/02 05:03:49;;;;;;;10.20;2.38;;;10.80;99.90;;;;;;5001104;28;20033;-62
2022/11/02 05:06:16;;;;;;;12.35;3.17;;;10.60;99.90;;;;;;5014692;28;20025;-63
2022/11/02 05:08:42;;;;;;;14.68;4.00;;;10.60;99.90;;;;;;5024256;28;20498;-63
2022/11/02 05:11:09;;;;;;;10.45;2.95;;;10.70;99.90;;;;;;5013564;28;20065;-63
2022/11/02 05:13:35;;;;;;;11.27;2.75;;;9.80;99.90;;;;;;4998346;28;20138;-62
2022/11/02 05:16:01;;;;;;;11.18;2.85;;;10.80;99.90;;;;;;5022175;28;20216;-63
2022/11/02 05:18:28;;;;;;;9.20;2.60;;;10.30;99.90;;;;;;5014257;28;20046;-65
2022/11/02 05:20:55;;;;;;;11.10;2.90;;;9.70;99.90;;;;;;5013928;28;20124;-62
2022/11/02 05:23:21;;;;;;;13.40;3.25;;;10.30;99.90;;;;;;5028916;28;20043;-62
2022/11/02 05:25:58;;;;;;;16.05;3.33;;;10.20;99.90;;;;;;5013606;28;20038;-63
2022/11/02 05:28:25;;;;;;;11.07;3.05;;;10.30;99.90;;;;;;5024441;28;20056;-63
2022/11/02 05:30:51;;;;;;;11.45;3.10;;;10.10;99.90;;;;;;5001569;28;20060;-64
2022/11/02 05:33:17;;;;;;;14.15;2.58;;;10.40;99.90;;;;;;5022692;28;20037;-64
2022/11/02 05:35:43;;;;;;;12.43;3.65;;;10.30;99.90;;;;;;4996343;28;20040;-64
2022/11/02 05:38:08;;;;;;;14.50;2.70;;;10.90;99.90;;;;;;5018408;28;20483;-63
2022/11/02 05:40:39;;;;;;;18.33;3.33;;;10.40;99.90;;;;;;5023728;28;20084;-64
2022/11/02 05:43:06;;;;;;;17.27;3.53;;;10.20;99.90;;;;;;5018705;28;20108;-62
2022/11/02 05:45:31;;;;;;;14.25;2.90;;;10.60;99.90;;;;;;5022072;28;20121;-63
2022/11/02 05:48:00;;;;;;;13.50;3.30;;;10.70;99.90;;;;;;5019796;28;20465;-62
2022/11/02 05:50:26;;;;;;;14.43;2.95;;;10.30;99.90;;;;;;5022973;28;20045;-63
2022/11/02 05:52:52;;;;;;;10.30;2.72;;;9.90;99.90;;;;;;5013449;28;20044;-62
2022/11/02 05:55:17;;;;;;;12.15;3.88;;;10.80;99.90;;;;;;4996444;28;20037;-62
2022/11/02 05:57:48;;;;;;;17.60;3.33;;;9.90;99.90;;;;;;5020073;28;20078;-62
2022/11/02 06:00:14;;;;;;;14.20;3.20;;;10.30;99.90;;;;;;5009729;28;20084;-62
2022/11/02 06:02:40;;;;;;;13.32;2.60;;;10.10;99.90;;;;;;5019631;28;20034;-61
2022/11/02 06:05:06;;;;;;;15.50;3.25;;;10.30;99.90;;;;;;4999739;28;20041;-61
2022/11/02 06:07:31;;;;;;;16.17;2.97;;;10.10;99.90;;;;;;5016690;28;20042;-60
2022/11/02 06:09:57;;;;;;;13.40;3.25;;;9.90;99.90;;;;;;5025881;28;20033;-63
2022/11/02 06:12:23;;;;;;;14.23;2.80;;;9.80;99.90;;;;;;5013009;28;20034;-60
2022/11/02 06:14:48;;;;;;;16.58;3.20;;;10.30;99.90;;;;;;5017286;28;20038;-60
2022/11/02 06:17:14;;;;;;;14.77;2.70;;;10.20;99.90;;;;;;5018103;28;20205;-60
2022/11/02 06:19:39;;;;;;;10.57;2.42;;;9.80;99.90;;;;;;5017809;28;20036;-60
2022/11/02 06:22:05;;;;;;;12.82;2.30;;;;;;;;;;5018768;28;20733;-59
2022/11/02 06:24:31;;;;;;;12.60;2.97;;;10.20;99.90;;;;;;5012491;28;20045;-60
2022/11/02 06:26:56;;;;;;;11.15;2.33;;;10.40;99.90;;;;;;5013189;28;20514;-60
2022/11/02 06:29:22;;;;;;;30.73;4.65;;;10.60;99.90;;;;;;5019112;28;20044;-61
2022/11/02 06:31:48;;;;;;;15.65;3.95;;;10.10;99.90;;;;;;5017447;28;20049;-62
2022/11/02 06:34:13;;;;;;;8.43;2.15;;;9.90;99.90;;;;;;5025946;28;20045;-63
2022/11/02 06:36:39;;;;;;;9.07;1.60;;;9.50;99.90;;;;;;5022820;28;20116;-63
2022/11/02 06:39:04;;;;;;;13.98;2.00;;;9.10;99.90;;;;;;5027034;28;20105;-62
2022/11/02 06:41:30;;;;;;;8.57;1.90;;;9.30;99.90;;;;;;5029738;28;20037;-63
2022/11/02 06:43:55;;;;;;;9.63;2.40;;;9.00;99.90;;;;;;5022316;28;20065;-62
2022/11/02 06:46:21;;;;;;;10.77;1.90;;;;;;;;;;5010679;28;20044;-61
2022/11/02 06:48:48;;;;;;;14.90;2.72;;;9.60;99.90;;;;;;5015134;28;20107;-62
2022/11/02 06:51:13;;;;;;;10.57;2.05;;;9.10;99.90;;;;;;5029122;28;20045;-61
2022/11/02 06:53:39;;;;;;;16.73;3.58;;;9.40;99.90;;;;;;5028593;28;20048;-63
2022/11/02 06:56:05;;;;;;;9.60;2.38;;;9.10;99.90;;;;;;5024686;28;20463;-61
2022/11/02 06:58:31;;;;;;;12.38;2.65;;;9.50;99.90;;;;;;5025541;28;20399;-61
2022/11/02 07:01:03;;;;;;;11.45;2.58;;;9.30;99.90;;;;;;5023072;28;20036;-60
2022/11/02 07:03:29;;;;;;;8.80;2.45;;;9.10;99.90;;;;;;5021025;28;20091;-61
2022/11/02 07:05:55;;;;;;;13.55;3.05;;;9.70;99.90;;;;;;4995622;28;20124;-61
2022/11/02 07:08:21;;;;;;;10.80;2.28;;;9.30;99.90;;;;;;5018393;28;20048;-61
2022/11/02 07:10:48;;;;;;;11.77;2.55;;;9.90;99.90;;;;;;5049064;22;20048;-62
2022/11/02 07:13:13;;;;;;;9.93;2.35;;;9.60;99.90;;;;;;5055566;28;20029;-60
2022/11/02 07:15:41;;;;;;;10.13;2.60;;;;;;;;;;5048871;28;20385;-57
2022/11/02 07:18:07;;;;;;;10.23;2.80;;;9.60;99.90;;;;;;5042037;28;20560;-62
2022/11/02 07:20:33;;;;;;;10.18;2.47;;;;;;;;;;5045743;28;20032;-56
2022/11/02 07:23:00;;;;;;;11.48;2.17;;;9.70;99.90;;;;;;5045730;28;20040;-59
2022/11/02 07:25:29;;;;;;;13.50;3.83;;;;;;;;;;5045212;28;20051;-61
2022/11/02 07:27:56;;;;;;;9.43;2.03;;;;;;;;;;5025126;28;20048;-58
2022/11/02 07:30:21;;;;;;;9.40;2.00;;;9.20;99.90;;;;;;5045134;28;20033;-57
2022/11/02 07:32:47;;;;;;;10.45;2.38;;;;;;;;;;5039494;28;20041;-58
2022/11/02 07:35:14;;;;;;;10.70;2.45;;;;;;;;;;5045372;28;20040;-60
2022/11/02 07:37:41;;;;;;;11.82;2.50;;;10.10;99.90;;;;;;5027654;28;20053;-57
2022/11/02 07:40:07;;;;;;;11.32;2.35;;;;;;;;;;5047910;28;20033;-57
2022/11/02 07:42:34;;;;;;;8.18;2.58;;;;;;;;;;5043471;28;20522;-62
2022/11/02 07:45:00;;;;;;;13.52;2.83;;;10.30;99.90;;;;;;5044777;28;20490;-60
2022/11/02 07:47:26;;;;;;;12.82;3.75;;;10.90;99.90;;;;;;5049097;28;20051;-62
2022/11/02 07:49:52;;;;;;;12.60;4.25;;;10.50;99.90;;;;;;5046243;28;20491;-58
2022/11/02 07:52:18;;;;;;;12.07;3.78;;;10.70;99.90;;;;;;5046375;28;20039;-57
2022/11/02 07:54:43;;;;;;;11.70;3.13;;;10.80;99.90;;;;;;5048930;28;20114;-57
2022/11/02 07:57:09;;;;;;;13.50;2.22;;;10.40;99.90;;;;;;5042843;28;20037;-59
2022/11/02 07:59:35;;;;;;;8.55;2.80;;;10.80;99.90;;;;;;5046556;28;20033;-60
2022/11/02 08:02:01;;;;;;;8.55;3.30;;;;;;;;;;5039712;28;20801;-57
2022/11/02 08:04:27;;;;;;;9.07;2.53;;;11.10;99.90;;;;;;5017114;28;20413;-59
2022/11/02 08:06:53;;;;;;;13.25;2.30;;;10.80;99.90;;;;;;5045762;28;20037;-59
2022/11/02 08:09:19;;;;;;;16.05;2.58;;;;;;;;;;5044494;28;20444;-59
2022/11/02 08:11:46;;;;;;;9.80;2.47;;;11.00;99.90;;;;;;5044916;28;20079;-60
2022/11/02 08:14:11;;;;;;;8.38;2.03;;;11.10;99.90;;;;;;5048265;28;20053;-59
2022/11/02 08:16:37;;;;;;;10.57;2.50;;;11.20;99.90;;;;;;5048458;28;20052;-56
2022/11/02 08:19:03;;;;;;;11.68;2.45;;;11.60;99.90;;;;;;5031438;28;20556;-59
2022/11/02 08:21:29;;;;;;;12.98;2.30;;;11.10;99.90;;;;;;5050254;28;20087;-59
2022/11/02 08:23:54;;;;;;;11.85;3.00;;;10.60;99.90;;;;;;5043699;28;20038;-60
2022/11/02 08:26:20;;;;;;;18.95;3.00;;;10.80;99.90;;;;;;5028477;28;20321;-57
2022/11/02 08:28:46;;;;;;;10.35;2.58;;;11.50;99.90;;;;;;5048255;28;20116;-57
2022/11/02 08:31:15;;;;;;;13.07;3.00;;;;;;;;;;5046425;28;20118;-59
2022/11/02 08:33:45;;;;;;;13.13;3.38;;;11.30;99.90;;;;;;5050956;28;20044;-61
2022/11/02 08:36:11;;;;;;;16.75;3.55;;;11.60;99.90;;;;;;5054840;28;20040;-59
2022/11/02 08:38:38;;;;;;;13.30;2.67;;;11.10;99.90;;;;;;5024372;28;20045;-57
2022/11/02 08:41:04;;;;;;;10.60;2.47;;;11.30;99.90;;;;;;5046256;28;20284;-56
2022/11/02 08:43:29;;;;;;;9.63;2.70;;;11.30;99.90;;;;;;5047815;28;20043;-54
2022/11/02 08:45:58;;;;;;;12.85;2.90;;;10.80;99.90;;;;;;5048851;28;20086;-55
2022/11/02 08:48:25;;;;;;;11.32;3.00;;;;;;;;;;5045956;28;20140;-61
2022/11/02 08:50:51;;;;;;;20.95;4.72;;;12.10;99.90;;;;;;5048570;28;20033;-59
2022/11/02 08:53:16;;;;;;;20.55;2.85;;;11.50;99.90;;;;;;5047849;28;20045;-57
2022/11/02 08:55:42;;;;;;;16.15;3.10;;;12.00;99.90;;;;;;5028364;28;20411;-57
2022/11/02 08:58:08;;;;;;;10.13;2.50;;;11.60;99.90;;;;;;5043729;28;21936;-57
2022/11/02 09:00:36;;;;;;;10.20;2.40;;;12.00;99.90;;;;;;5042746;28;20290;-59
2022/11/02 09:03:06;;;;;;;15.10;3.13;;;11.80;99.90;;;;;;5040849;28;20552;-59
2022/11/02 09:05:34;;;;;;;12.10;3.35;;;11.70;99.90;;;;;;5043479;28;20556;-61
2022/11/02 09:08:02;;;;;;;10.43;2.50;;;12.20;99.90;;;;;;5046508;28;20044;-58
2022/11/02 09:10:28;;;;;;;10.05;2.88;;;;;;;;;;5043111;28;20037;-59
2022/11/02 09:12:54;;;;;;;10.55;3.55;;;;;;;;;;5039312;28;20418;-59
2022/11/02 09:15:20;;;;;;;12.40;2.45;;;12.10;99.90;;;;;;5042907;28;20041;-59
2022/11/02 09:17:47;;;;;;;9.10;2.88;;;12.50;99.90;;;;;;5043075;28;20049;-57
2022/11/02 09:20:15;;;;;;;9.68;2.50;;;11.50;99.90;;;;;;5041171;28;20048;-58
2022/11/02 09:22:42;;;;;;;12.10;2.88;;;12.30;99.90;;;;;;5040741;28;20037;-56
2022/11/02 09:25:08;;;;;;;8.60;3.13;;;12.10;99.90;;;;;;5041088;28;20086;-56
2022/11/02 09:27:34;;;;;;;16.20;3.42;;;12.10;99.90;;;;;;5049115;28;20491;-57
2022/11/02 09:29:59;;;;;;;10.70;2.25;;;12.20;99.90;;;;;;5048431;28;20094;-58
2022/11/02 09:32:25;;;;;;;10.23;2.15;;;11.60;99.90;;;;;;5044054;28;20044;-55
2022/11/02 09:34:51;;;;;;;14.93;2.83;;;12.30;99.90;;;;;;5050842;28;20044;-56
2022/11/02 09:37:16;;;;;;;9.85;3.38;;;12.50;99.90;;;;;;5026233;28;20041;-60
2022/11/02 09:39:42;;;;;;;12.38;2.63;;;12.00;99.90;;;;;;5026749;28;20029;-59
2022/11/02 09:42:16;;;;;;;13.63;2.55;;;;;;;;;;5039530;28;20036;-59
2022/11/02 09:45:09;;;;;;;17.60;2.50;;;12.10;99.90;;;;;;5047815;28;20494;-56
2022/11/02 09:47:40;;;;;;;11.35;2.65;;;;;;;;;;5028115;28;20427;-60
2022/11/02 09:50:12;;;;;;;12.63;2.83;;;11.50;99.90;;;;;;5044415;28;20094;-56
2022/11/02 09:52:42;;;;;;;9.25;2.40;;;12.50;99.90;;;;;;5044656;28;20041;-56
2022/11/02 09:55:14;;;;;;;10.45;2.63;;;;;;;;;;5043543;28;20083;-57
2022/11/02 09:57:44;;;;;;;12.32;3.33;;;12.50;99.90;;;;;;5036644;28;20426;-55
2022/11/02 10:00:14;;;;;;;11.32;2.30;;;12.20;99.90;;;;;;5040305;28;20029;-58
2022/11/02 10:02:49;;;;;;;8.57;2.15;;;11.70;99.90;;;;;;5044050;28;20033;-57
2022/11/02 10:05:18;;;;;;;8.40;2.30;;;12.30;99.90;;;;;;5044661;28;20083;-56
2022/11/02 10:07:55;;;;;;;13.10;2.58;;;12.60;99.90;;;;;;5042191;28;20107;-53
2022/11/02 10:10:30;;;;;;;10.43;2.88;;;12.40;99.90;;;;;;5052690;28;20041;-58
2022/11/02 10:13:00;;;;;;;;;;;12.30;99.90;;;;;;5043781;28;20067;-59
2022/11/02 10:15:43;;;;;;;9.27;2.15;;;;;;;;;;5052506;28;20328;-60
2022/11/02 10:18:17;;;;;;;9.07;2.45;;;12.40;99.90;;;;;;5046156;28;20068;-60
2022/11/02 10:20:50;;;;;;;8.60;2.13;;;12.30;99.90;;;;;;5035038;28;20054;-59
2022/11/02 10:23:30;;;;;;;8.38;2.00;;;;;;;;;;5028900;28;20068;-55
2022/11/02 10:25:56;;;;;;;10.90;2.05;;;;;;;;;;5046440;28;20036;-58
2022/11/02 10:28:25;;;;;;;9.52;2.30;;;;;;;;;;5027006;28;20072;-59
2022/11/02 10:30:53;;;;;;;11.82;2.88;;;12.50;99.90;;;;;;5035709;28;20064;-56
2022/11/02 10:33:25;;;;;;;8.85;2.00;;;12.70;99.90;;;;;;5033570;28;20045;-53
2022/11/02 10:36:12;;;;;;;9.95;2.10;;;12.80;99.90;;;;;;5035428;28;20045;-59
2022/11/02 10:38:50;;;;;;;10.85;3.08;;;;;;;;;;5047065;28;20503;-56
2022/11/02 10:41:27;;;;;;;8.65;1.85;;;12.80;99.90;;;;;;5043322;28;20086;-59
2022/11/02 10:44:18;;;;;;;14.85;2.95;;;13.40;99.90;;;;;;5051729;28;20116;-58
2022/11/02 10:46:58;;;;;;;11.57;3.55;;;12.80;99.90;;;;;;5048503;28;20116;-57
2022/11/02 10:49:47;;;;;;;10.73;2.00;;;;;;;;;;5047410;28;20072;-58
2022/11/02 10:52:15;;;;;;;9.95;2.20;;;12.90;99.90;;;;;;5054067;28;20387;-59
2022/11/02 10:54:41;;;;;;;9.70;1.90;;;13.10;99.90;;;;;;5042747;28;20037;-57
2022/11/02 10:57:17;;;;;;;5.45;1.75;;;13.00;99.90;;;;;;5029669;28;20116;-56
2022/11/02 10:59:43;;;;;;;7.45;1.55;;;;;;;;;;5054019;28;20577;-55
2022/11/02 11:02:15;;;;;;;7.25;1.95;;;12.80;99.90;;;;;;5035553;28;20155;-59
2022/11/02 11:04:41;;;;;;;12.13;2.85;;;12.50;99.90;;;;;;5052034;28;20510;-59
2022/11/02 11:07:17;;;;;;;9.25;2.40;;;13.00;99.90;;;;;;5043358;28;20387;-56
2022/11/02 11:09:56;;;;;;;9.40;2.38;;;13.10;99.90;;;;;;5058868;28;20056;-58
2022/11/02 11:12:36;;;;;;;9.32;1.70;;;12.90;99.90;;;;;;5043135;28;20036;-58
2022/11/02 11:15:05;;;;;;;10.80;2.25;;;12.80;99.90;;;;;;5046368;28;20040;-59
2022/11/02 11:17:39;;;;;;;7.50;1.58;;;12.90;99.90;;;;;;5046422;28;20048;-59
2022/11/02 11:20:33;;;;;;;8.48;2.10;;;12.20;99.90;;;;;;5045855;28;20467;-56
2022/11/02 11:23:14;;;;;;;11.27;2.55;;;12.90;99.90;;;;;;5029721;28;20043;-57
2022/11/02 11:25:41;;;;;;;11.10;2.35;;;12.80;99.90;;;;;;5049990;28;20029;-56
2022/11/02 11:28:24;;;;;;;6.60;1.77;;;12.80;99.90;;;;;;5044486;28;20427;-59
2022/11/02 11:31:20;;;;;;;10.40;2.35;;;13.10;99.90;;;;;;5055759;28;20387;-56
2022/11/02 11:33:58;;;;;;;9.30;1.88;;;12.90;99.90;;;;;;5046549;28;20049;-58
2022/11/02 11:36:29;;;;;;;6.32;1.88;;;13.50;99.90;;;;;;5048268;28;20518;-59
2022/11/02 11:38:58;;;;;;;10.70;1.88;;;13.30;99.90;;;;;;5044563;28;20090;-59
2022/11/02 11:41:24;;;;;;;17.35;2.25;;;13.20;99.90;;;;;;5027801;28;20495;-53
2022/11/02 11:43:51;;;;;;;7.10;1.98;;;13.10;99.90;;;;;;5047219;28;20040;-59
2022/11/02 11:46:17;;;;;;;9.73;2.20;;;14.00;99.90;;;;;;5045298;28;20044;-56
2022/11/02 11:48:53;;;;;;;7.97;1.98;;;13.90;99.90;;;;;;5047770;28;20376;-58
2022/11/02 11:51:22;;;;;;;10.10;2.17;;;13.10;99.90;;;;;;5045599;28;20459;-56
2022/11/02 11:54:26;;;;;;;8.75;2.10;;;13.20;99.90;;;;;;5052669;28;20048;-55
2022/11/02 11:56:56;;;;;;;6.43;1.60;;;14.00;99.90;;;;;;5045854;28;20053;-60
2022/11/02 11:59:27;;;;;;;8.52;1.80;;;14.30;99.90;;;;;;5049756;28;20029;-59
2022/11/02 12:01:56;;;;;;;10.65;3.55;;;13.30;99.90;;;;;;5029081;28;20082;-58
2022/11/02 12:04:33;;;;;;;8.32;2.00;;;14.40;39.00;;;;;;5048578;28;20395;-55
2022/11/02 12:07:08;;;;;;;8.95;2.08;;;13.30;99.90;;;;;;5023427;28;20045;-56
2022/11/02 12:09:39;;;;;;;;;;;14.60;99.90;;;;;;5048459;28;20041;-57
2022/11/02 12:12:17;;;;;;;7.97;2.47;;;14.80;99.90;;;;;;5046174;28;20354;-59
2022/11/02 12:14:48;;;;;;;11.68;2.00;;;14.40;99.90;;;;;;5048165;28;20041;-56
2022/11/02 12:17:47;;;;;;;12.30;2.25;;;15.00;99.90;;;;;;5040437;28;20498;-55
2022/11/02 12:20:19;;;;;;;14.30;2.35;;;;;;;;;;5046274;28;20033;-56
2022/11/02 12:23:03;;;;;;;8.00;1.77;;;14.50;99.90;;;;;;5053447;28;20047;-55
2022/11/02 12:26:08;;;;;;;9.13;2.40;;;14.50;99.90;;;;;;5041586;28;20045;-54
2022/11/02 12:28:47;;;;;;;14.40;2.43;;;14.40;99.90;;;;;;5047076;28;20033;-56
2022/11/02 12:31:21;;;;;;;6.68;1.70;;;15.60;99.90;;;;;;5046902;28;20465;-60
2022/11/02 12:34:12;;;;;;;8.68;2.20;;;15.40;99.90;;;;;;5048433;28;20119;-56
2022/11/02 12:37:02;;;;;;;9.40;2.33;;;15.80;99.90;;;;;;5047999;28;20147;-57
2022/11/02 12:39:43;;;;;;;12.50;2.10;;;16.00;99.90;;;;;;5044192;28;20587;-55
2022/11/02 12:42:19;;;;;;;13.48;2.28;;;16.60;99.90;;;;;;5040126;28;20036;-55
2022/11/02 12:45:18;;;;;;;11.40;1.80;;;17.20;28.50;;;;;;5048228;28;20041;-56
2022/11/02 12:47:51;;;;;;;8.15;1.98;;;17.60;1.00;;;;;;5051085;28;20048;-60
2022/11/02 12:50:24;;;;;;;9.60;1.80;;;18.80;99.90;;;;;;5050434;28;20044;-56
2022/11/02 12:53:05;;;;;;;8.88;2.08;;;19.00;99.90;;;;;;5075622;28;20818;-59
2022/11/02 12:55:40;;;;;;;7.97;2.00;;;19.10;99.90;;;;;;5076277;28;20047;-56
2022/11/02 12:58:29;;;;;;;9.48;2.15;;;18.90;99.90;;;;;;5077219;28;20028;-57
2022/11/02 13:01:01;;;;;;;9.63;2.17;;;18.50;99.90;;;;;;5072086;28;20036;-59
2022/11/02 13:04:08;;;;;;;5.68;1.67;;;20.00;99.90;;;;;;5074577;28;20028;-58
2022/11/02 13:06:42;;;;;;;10.00;2.13;;;20.00;99.90;;;;;;5075005;28;20048;-58
2022/11/02 13:09:16;;;;;;;;;;;20.30;99.90;;;;;;5077229;28;20486;-58
2022/11/02 13:14:18;;;;;;;12.70;2.65;;;19.60;99.90;;;;;;5064407;28;20045;-57
2022/11/02 13:16:57;;;;;;;8.52;1.92;;;19.70;99.90;;;;;;5066071;28;20040;-59
2022/11/02 13:19:32;;;;;;;6.90;1.83;;;19.20;99.90;;;;;;5064656;28;20051;-60
2022/11/02 13:22:00;;;;;;;8.40;1.73;;;19.00;99.90;;;;;;5060285;28;20040;-60
2022/11/02 13:24:37;;;;;;;9.38;2.30;;;19.50;99.90;;;;;;5066101;28;20064;-58
2022/11/02 13:27:06;;;;;;;7.13;1.80;;;19.40;99.90;;;;;;5062659;28;20037;-60
2022/11/02 13:29:43;;;;;;;8.40;2.22;;;19.80;99.90;;;;;;5054680;28;20033;-59